createdAt,value
2017-01-13T00:00:06.653Z,6.06
2017-01-13T00:01:17.724Z,6.01
2017-01-13T00:02:27.303Z,5.91
2017-01-13T00:03:37.861Z,5.99
2017-01-13T00:04:47.052Z,5.97
2017-01-13T00:05:56.701Z,5.99
2017-01-13T00:07:07.083Z,6
2017-01-13T00:08:16.789Z,5.91
2017-01-13T00:09:26.505Z,6.01
2017-01-13T00:10:36.077Z,5.9
2017-01-13T00:11:45.453Z,5.85
2017-01-13T00:12:57.167Z,5.83
2017-01-13T00:14:09.440Z,5.75
2017-01-13T00:15:19.388Z,5.78
2017-01-13T00:16:30.271Z,5.83
2017-01-13T00:17:40.214Z,5.83
2017-01-13T00:18:52.663Z,5.89
2017-01-13T00:20:05.422Z,5.83
2017-01-13T00:21:17.450Z,5.74
2017-01-13T00:22:28.349Z,5.75
2017-01-13T00:23:40.295Z,5.72
2017-01-13T00:24:51.516Z,5.67
2017-01-13T00:26:02.619Z,5.68
2017-01-13T00:27:14.096Z,5.74
2017-01-13T00:28:23.949Z,5.71
2017-01-13T00:29:33.662Z,5.68
2017-01-13T00:30:46.574Z,5.65
2017-01-13T00:31:59.791Z,5.56
2017-01-13T00:33:11.946Z,5.71
2017-01-13T00:34:21.621Z,5.67
2017-01-13T00:35:33.493Z,5.71
2017-01-13T00:36:45.843Z,5.68
2017-01-13T00:37:55.475Z,5.65
2017-01-13T00:39:07.790Z,5.67
2017-01-13T00:40:19.365Z,5.63
2017-01-13T00:41:30.312Z,5.67
2017-01-13T00:42:41.827Z,5.68
2017-01-13T00:43:54.721Z,5.68
2017-01-13T00:45:07.351Z,5.67
2017-01-13T00:46:19.077Z,5.57
2017-01-13T00:47:29.338Z,5.56
2017-01-13T00:48:41.904Z,5.53
2017-01-13T00:49:51.445Z,5.43
2017-01-13T00:51:02.337Z,5.43
2017-01-13T00:52:15.368Z,5.51
2017-01-13T00:53:27.035Z,5.48
2017-01-13T00:54:37.236Z,5.4
2017-01-13T00:55:50.014Z,5.45
2017-01-13T00:57:02.554Z,5.33
2017-01-13T00:58:12.511Z,5.27
2017-01-13T00:59:24.409Z,5.28
2017-01-13T01:00:36.469Z,5.18
2017-01-13T01:01:46.334Z,5.06
2017-01-13T01:02:58.686Z,5.03
2017-01-13T01:04:12.376Z,5
2017-01-13T01:05:24.655Z,5
2017-01-13T01:06:34.003Z,4.89
2017-01-13T01:07:45.788Z,4.86
2017-01-13T01:08:58.715Z,4.84
2017-01-13T01:10:10.439Z,4.7
2017-01-13T01:11:20.303Z,4.6
2017-01-13T01:12:31.462Z,4.66
2017-01-13T01:13:41.397Z,4.58
2017-01-13T01:14:52.955Z,4.59
2017-01-13T01:16:04.316Z,4.6
2017-01-13T01:17:14.686Z,4.6
2017-01-13T01:18:26.168Z,4.59
2017-01-13T01:19:38.845Z,4.47
2017-01-13T01:20:48.829Z,4.52
2017-01-13T01:22:00.322Z,4.48
2017-01-13T01:23:12.355Z,4.51
2017-01-13T01:24:22.156Z,4.51
2017-01-13T01:25:33.624Z,4.6
2017-01-13T01:26:45.804Z,4.5
2017-01-13T01:27:55.477Z,4.65
2017-01-13T01:29:06.964Z,4.58
2017-01-13T01:30:19.491Z,4.51
2017-01-13T01:31:29.141Z,4.45
2017-01-13T01:32:41.831Z,4.4
2017-01-13T01:33:55.423Z,4.42
2017-01-13T01:35:07.672Z,4.37
2017-01-13T01:36:16.904Z,4.3
2017-01-13T01:37:28.911Z,4.33
2017-01-13T01:38:40.968Z,4.33
2017-01-13T01:39:49.949Z,4.3
2017-01-13T01:41:02.187Z,4.3
2017-01-13T01:42:14.401Z,4.34
2017-01-13T01:43:23.374Z,4.32
2017-01-13T01:44:35.475Z,4.3
2017-01-13T01:45:48.116Z,4.3
2017-01-13T01:46:57.099Z,4.44
2017-01-13T01:48:08.975Z,4.32
2017-01-13T01:49:21.485Z,4.27
2017-01-13T01:50:30.614Z,4.29
2017-01-13T01:51:42.784Z,4.41
2017-01-13T01:52:55.069Z,4.32
2017-01-13T01:54:04.060Z,4.33
2017-01-13T01:55:16.043Z,4.34
2017-01-13T01:56:28.795Z,4.3
2017-01-13T01:57:37.777Z,4.24
2017-01-13T01:58:49.581Z,4.3
2017-01-13T02:00:02.164Z,4.29
2017-01-13T02:01:11.148Z,4.15
2017-01-13T02:02:23.657Z,4.33
2017-01-13T02:03:35.707Z,4.29
2017-01-13T02:04:44.699Z,4.16
2017-01-13T02:05:56.768Z,4.33
2017-01-13T02:07:09.501Z,4.33
2017-01-13T02:08:18.480Z,4.27
2017-01-13T02:09:30.352Z,4.29
2017-01-13T02:10:42.901Z,4.29
2017-01-13T02:11:51.880Z,4.33
2017-01-13T02:13:03.811Z,4.3
2017-01-13T02:14:16.271Z,4.24
2017-01-13T02:15:25.256Z,4.23
2017-01-13T02:16:37.445Z,4.22
2017-01-13T02:17:50.117Z,4.18
2017-01-13T02:18:59.102Z,4.18
2017-01-13T02:20:11.168Z,4.18
2017-01-13T02:21:23.527Z,4.12
2017-01-13T02:22:32.533Z,4.14
2017-01-13T02:23:44.425Z,4.14
2017-01-13T02:24:56.933Z,4.14
2017-01-13T02:26:06.318Z,4.22
2017-01-13T02:27:17.939Z,4.18
2017-01-13T02:28:29.428Z,4.16
2017-01-13T02:29:41.198Z,4.15
2017-01-13T02:30:51.825Z,4.16
2017-01-13T02:32:04.163Z,4.16
2017-01-13T02:33:14.754Z,4.2
2017-01-13T02:34:29.947Z,4.18
2017-01-13T02:35:41.681Z,4.15
2017-01-13T02:36:54.584Z,4.12
2017-01-13T02:38:07.104Z,4.11
2017-01-13T02:39:16.083Z,4.18
2017-01-13T02:40:28.190Z,4.14
2017-01-13T02:41:40.667Z,4.11
2017-01-13T02:42:49.648Z,4.11
2017-01-13T02:44:01.931Z,4.09
2017-01-13T02:45:14.184Z,4.18
2017-01-13T02:46:23.164Z,4.09
2017-01-13T02:47:35.139Z,4.16
2017-01-13T02:48:47.795Z,4.18
2017-01-13T02:49:56.782Z,4.08
2017-01-13T02:51:09.158Z,4.06
2017-01-13T02:52:21.323Z,4.05
2017-01-13T02:53:30.451Z,4.02
2017-01-13T02:54:42.700Z,3.97
2017-01-13T02:55:54.920Z,3.96
2017-01-13T02:57:03.901Z,3.93
2017-01-13T02:58:15.896Z,4.04
2017-01-13T02:59:28.628Z,3.96
2017-01-13T03:00:37.608Z,3.97
2017-01-13T03:01:49.403Z,4.08
2017-01-13T03:03:01.997Z,4.05
2017-01-13T03:04:10.986Z,4.08
2017-01-13T03:05:22.892Z,4.08
2017-01-13T03:06:35.542Z,4
2017-01-13T03:07:44.522Z,4.06
2017-01-13T03:08:56.757Z,4.11
2017-01-13T03:10:09.270Z,4.14
2017-01-13T03:11:18.251Z,4.15
2017-01-13T03:12:30.125Z,4.12
2017-01-13T03:13:42.550Z,3.98
2017-01-13T03:14:51.529Z,4
2017-01-13T03:16:03.944Z,3.91
2017-01-13T03:17:16.089Z,3.97
2017-01-13T03:18:25.070Z,3.94
2017-01-13T03:19:37.109Z,3.97
2017-01-13T03:20:50.635Z,3.97
2017-01-13T03:21:59.618Z,3.91
2017-01-13T03:23:11.217Z,3.83
2017-01-13T03:24:23.367Z,3.8
2017-01-13T03:25:32.347Z,3.84
2017-01-13T03:26:44.196Z,3.9
2017-01-13T03:27:56.806Z,3.83
2017-01-13T03:29:05.825Z,3.75
2017-01-13T03:30:18.245Z,3.69
2017-01-13T03:31:30.651Z,3.69
2017-01-13T03:32:39.735Z,3.73
2017-01-13T03:33:51.558Z,3.65
2017-01-13T03:35:04.528Z,3.69
2017-01-13T03:36:15.983Z,3.68
2017-01-13T03:37:26.709Z,3.58
2017-01-13T03:38:39.725Z,3.5
2017-01-13T03:39:52.233Z,3.51
2017-01-13T03:41:01.212Z,3.51
2017-01-13T03:42:13.226Z,3.42
2017-01-13T03:43:25.642Z,3.33
2017-01-13T03:44:34.628Z,3.42
2017-01-13T03:45:45.276Z,3.24
2017-01-13T03:46:54.254Z,3.31
2017-01-13T03:48:03.237Z,3.23
2017-01-13T03:49:12.221Z,3.23
2017-01-13T03:50:21.206Z,3.23
2017-01-13T03:51:30.187Z,3.11
2017-01-13T03:52:39.173Z,3.17
2017-01-13T03:53:48.155Z,3
2017-01-13T03:54:57.134Z,2.87
2017-01-13T03:56:06.117Z,2.89
2017-01-13T03:57:15.096Z,2.77
2017-01-13T03:58:24.075Z,2.74
2017-01-13T03:59:33.063Z,2.64
2017-01-13T04:00:42.045Z,2.57
2017-01-13T04:01:51.023Z,2.53
2017-01-13T04:02:59.996Z,2.52
2017-01-13T04:04:08.977Z,2.46
2017-01-13T04:05:17.956Z,2.38
2017-01-13T04:06:26.939Z,2.36
2017-01-13T04:07:35.922Z,2.36
2017-01-13T04:08:44.898Z,2.34
2017-01-13T04:09:53.877Z,2.34
2017-01-13T04:11:02.904Z,2.3
2017-01-13T04:12:11.884Z,2.41
2017-01-13T04:13:20.859Z,2.39
2017-01-13T04:14:29.869Z,2.39
2017-01-13T04:15:38.853Z,2.52
2017-01-13T04:16:47.831Z,2.59
2017-01-13T04:17:56.816Z,2.64
2017-01-13T04:19:05.795Z,2.61
2017-01-13T04:20:14.772Z,2.64
2017-01-13T04:21:23.750Z,2.74
2017-01-13T04:22:32.731Z,2.75
2017-01-13T04:23:41.710Z,2.85
2017-01-13T04:24:50.686Z,2.84
2017-01-13T04:25:59.664Z,2.89
2017-01-13T04:27:08.647Z,2.84
2017-01-13T04:28:17.623Z,3.06
2017-01-13T04:29:26.598Z,3.05
2017-01-13T04:30:35.604Z,3.13
2017-01-13T04:31:44.583Z,3.15
2017-01-13T04:32:53.558Z,3.15
2017-01-13T04:34:02.533Z,3.08
2017-01-13T04:35:11.522Z,3.13
2017-01-13T04:36:20.498Z,3.08
2017-01-13T04:37:29.485Z,3.26
2017-01-13T04:38:38.467Z,3.23
2017-01-13T04:39:47.448Z,3.23
2017-01-13T04:40:56.426Z,3.29
2017-01-13T04:42:05.407Z,3.26
2017-01-13T04:43:14.384Z,3.21
2017-01-13T04:44:23.362Z,3.17
2017-01-13T04:45:32.347Z,3.26
2017-01-13T04:46:41.329Z,3.32
2017-01-13T04:47:50.306Z,3.36
2017-01-13T04:48:59.286Z,3.29
2017-01-13T04:50:08.267Z,3.26
2017-01-13T04:51:17.242Z,3.31
2017-01-13T04:52:26.223Z,3.36
2017-01-13T04:53:35.205Z,3.45
2017-01-13T04:54:44.182Z,3.45
2017-01-13T04:55:53.168Z,3.51
2017-01-13T04:57:02.146Z,3.48
2017-01-13T04:58:11.125Z,3.55
2017-01-13T04:59:20.136Z,3.55
2017-01-13T05:00:29.113Z,3.58
2017-01-13T05:01:38.090Z,3.52
2017-01-13T05:02:47.070Z,3.54
2017-01-13T05:03:56.049Z,3.51
2017-01-13T05:05:05.028Z,3.52
2017-01-13T05:06:14.006Z,3.48
2017-01-13T05:07:22.986Z,3.43
2017-01-13T05:08:31.964Z,3.42
2017-01-13T05:09:40.949Z,3.48
2017-01-13T05:10:49.929Z,3.43
2017-01-13T05:11:58.908Z,3.55
2017-01-13T05:13:07.890Z,3.6
2017-01-13T05:14:16.870Z,3.68
2017-01-13T05:15:25.854Z,3.68
2017-01-13T05:16:34.832Z,3.68
2017-01-13T05:17:43.815Z,3.65
2017-01-13T05:18:52.796Z,3.57
2017-01-13T05:20:01.777Z,3.7
2017-01-13T05:21:10.759Z,3.7
2017-01-13T05:22:19.738Z,3.79
2017-01-13T05:23:28.719Z,3.75
2017-01-13T05:24:37.695Z,3.78
2017-01-13T05:25:46.676Z,3.83
2017-01-13T05:26:55.660Z,3.83
2017-01-13T05:28:04.642Z,3.84
2017-01-13T05:29:13.617Z,3.76
2017-01-13T05:30:22.594Z,3.7
2017-01-13T05:31:31.574Z,3.78
2017-01-13T05:32:40.559Z,3.86
2017-01-13T05:33:49.540Z,3.79
2017-01-13T05:34:58.521Z,3.9
2017-01-13T05:36:07.510Z,3.86
2017-01-13T05:37:16.494Z,3.87
2017-01-13T05:38:25.474Z,3.88
2017-01-13T05:39:34.472Z,3.98
2017-01-13T05:40:43.452Z,3.94
2017-01-13T05:41:52.462Z,3.97
2017-01-13T05:43:01.446Z,3.88
2017-01-13T05:44:10.437Z,3.91
2017-01-13T05:45:19.415Z,3.88
2017-01-13T05:46:28.394Z,3.88
2017-01-13T05:47:37.373Z,3.96
2017-01-13T05:48:46.356Z,4.02
2017-01-13T05:49:55.337Z,3.97
2017-01-13T05:51:04.322Z,4.04
2017-01-13T05:52:13.303Z,4.05
2017-01-13T05:53:22.280Z,3.94
2017-01-13T05:54:31.264Z,3.91
2017-01-13T05:55:40.269Z,3.97
2017-01-13T05:56:49.254Z,4.06
2017-01-13T05:57:58.233Z,4.05
2017-01-13T05:59:07.217Z,4.11
2017-01-13T06:00:16.224Z,4.06
2017-01-13T06:01:25.207Z,4.12
2017-01-13T06:02:34.190Z,4.14
2017-01-13T06:03:43.176Z,4.16
2017-01-13T06:04:52.159Z,4.18
2017-01-13T06:06:01.141Z,4.14
2017-01-13T06:07:10.127Z,4.12
2017-01-13T06:08:19.128Z,4.18
2017-01-13T06:09:28.110Z,4.2
2017-01-13T06:10:37.093Z,4.16
2017-01-13T06:11:46.072Z,4.32
2017-01-13T06:12:55.054Z,4.42
2017-01-13T06:14:04.036Z,4.44
2017-01-13T06:15:13.014Z,4.52
2017-01-13T06:16:21.993Z,4.37
2017-01-13T06:17:30.979Z,4.32
2017-01-13T06:18:39.959Z,4.4
2017-01-13T06:19:48.937Z,4.41
2017-01-13T06:20:57.918Z,4.33
2017-01-13T06:22:06.904Z,4.27
2017-01-13T06:23:15.887Z,4.23
2017-01-13T06:24:24.872Z,4.26
2017-01-13T06:25:33.854Z,4.32
2017-01-13T06:26:42.830Z,4.32
2017-01-13T06:27:51.807Z,4.45
2017-01-13T06:29:00.787Z,4.44
2017-01-13T06:30:09.766Z,4.37
2017-01-13T06:31:18.749Z,4.51
2017-01-13T06:32:27.734Z,4.54
2017-01-13T06:33:36.717Z,4.52
2017-01-13T06:34:45.695Z,4.51
2017-01-13T06:35:54.679Z,4.55
2017-01-13T06:37:03.660Z,4.5
2017-01-13T06:38:12.646Z,4.45
2017-01-13T06:39:21.623Z,4.44
2017-01-13T06:40:30.602Z,4.37
2017-01-13T06:41:39.578Z,4.58
2017-01-13T06:42:48.561Z,4.55
2017-01-13T06:43:57.544Z,4.59
2017-01-13T06:45:06.527Z,4.51
2017-01-13T06:46:15.511Z,4.54
2017-01-13T06:47:24.489Z,4.63
2017-01-13T06:48:33.470Z,4.6
2017-01-13T06:49:42.452Z,4.69
2017-01-13T06:50:51.436Z,4.69
2017-01-13T06:52:00.421Z,4.7
2017-01-13T06:53:09.408Z,4.78
2017-01-13T06:54:18.387Z,4.75
2017-01-13T06:55:27.367Z,4.77
2017-01-13T06:56:36.345Z,4.86
2017-01-13T06:57:45.331Z,4.85
2017-01-13T06:58:54.320Z,4.88
2017-01-13T07:00:03.336Z,4.84
2017-01-13T07:01:12.315Z,4.82
2017-01-13T07:02:21.295Z,4.97
2017-01-13T07:03:30.276Z,4.85
2017-01-13T07:04:39.259Z,4.88
2017-01-13T07:05:48.245Z,5
2017-01-13T07:06:57.250Z,4.86
2017-01-13T07:08:06.232Z,4.94
2017-01-13T07:09:15.216Z,4.88
2017-01-13T07:10:24.200Z,4.91
2017-01-13T07:11:33.187Z,4.86
2017-01-13T07:12:42.169Z,4.94
2017-01-13T07:13:51.157Z,4.97
2017-01-13T07:15:00.165Z,4.88
2017-01-13T07:16:09.148Z,4.86
2017-01-13T07:17:18.128Z,4.84
2017-01-13T07:18:27.118Z,4.88
2017-01-13T07:19:36.097Z,4.73
2017-01-13T07:20:45.079Z,4.77
2017-01-13T07:21:54.058Z,4.73
2017-01-13T07:23:03.039Z,4.73
2017-01-13T07:24:12.021Z,4.78
2017-01-13T07:25:20.997Z,4.73
2017-01-13T07:26:29.984Z,4.63
2017-01-13T07:27:38.967Z,4.66
2017-01-13T07:28:47.949Z,4.7
2017-01-13T07:29:56.934Z,4.66
2017-01-13T07:31:05.923Z,4.6
2017-01-13T07:32:14.904Z,4.62
2017-01-13T07:33:23.891Z,4.73
2017-01-13T07:34:32.876Z,4.73
2017-01-13T07:35:41.859Z,4.84
2017-01-13T07:36:50.834Z,4.8
2017-01-13T07:37:59.819Z,4.82
2017-01-13T07:39:08.801Z,4.77
2017-01-13T07:40:17.785Z,4.86
2017-01-13T07:41:26.764Z,4.82
2017-01-13T07:42:35.745Z,4.78
2017-01-13T07:43:44.726Z,4.82
2017-01-13T07:44:53.708Z,4.84
2017-01-13T07:46:02.689Z,4.75
2017-01-13T07:47:11.670Z,4.85
2017-01-13T07:48:20.672Z,4.85
2017-01-13T07:49:29.661Z,4.82
2017-01-13T07:50:38.643Z,4.89
2017-01-13T07:51:47.629Z,4.88
2017-01-13T07:52:56.617Z,4.91
2017-01-13T07:54:05.606Z,4.88
2017-01-13T07:55:14.591Z,4.89
2017-01-13T07:56:23.576Z,4.94
2017-01-13T07:57:32.573Z,4.94
2017-01-13T07:58:41.557Z,4.94
2017-01-13T07:59:50.543Z,4.94
2017-01-13T08:00:59.521Z,4.89
2017-01-13T08:02:08.505Z,4.89
2017-01-13T08:03:17.493Z,4.99
2017-01-13T08:04:26.477Z,4.88
2017-01-13T08:05:35.467Z,5
2017-01-13T08:06:44.480Z,5.04
2017-01-13T08:07:53.466Z,5.04
2017-01-13T08:09:02.482Z,5
2017-01-13T08:10:11.469Z,4.89
2017-01-13T08:11:20.455Z,5.03
2017-01-13T08:12:29.437Z,5.03
2017-01-13T08:13:38.418Z,4.94
2017-01-13T08:14:47.409Z,4.86
2017-01-13T08:15:56.394Z,4.89
2017-01-13T08:17:05.375Z,4.88
2017-01-13T08:18:14.357Z,4.96
2017-01-13T08:19:23.339Z,4.86
2017-01-13T08:20:32.322Z,4.88
2017-01-13T08:21:41.319Z,4.94
2017-01-13T08:22:50.312Z,4.85
2017-01-13T08:23:59.293Z,5
2017-01-13T08:25:08.271Z,4.92
2017-01-13T08:26:17.254Z,4.92
2017-01-13T08:27:26.235Z,4.85
2017-01-13T08:28:35.215Z,4.88
2017-01-13T08:29:44.197Z,4.88
2017-01-13T08:30:53.182Z,4.86
2017-01-13T08:32:02.186Z,4.84
2017-01-13T08:33:11.171Z,4.89
2017-01-13T08:34:20.157Z,4.85
2017-01-13T08:35:29.137Z,4.85
2017-01-13T08:36:38.116Z,4.89
2017-01-13T08:37:47.095Z,4.8
2017-01-13T08:38:56.078Z,4.91
2017-01-13T08:40:05.067Z,4.92
2017-01-13T08:41:14.046Z,4.94
2017-01-13T08:42:23.033Z,4.84
2017-01-13T08:43:32.043Z,4.89
2017-01-13T08:44:41.067Z,4.99
2017-01-13T08:45:50.104Z,4.91
2017-01-13T08:46:59.092Z,5.02
2017-01-13T08:48:08.089Z,4.92
2017-01-13T08:49:17.124Z,4.94
2017-01-13T08:50:26.188Z,4.91
2017-01-13T08:51:35.217Z,4.89
2017-01-13T08:52:44.216Z,4.89
2017-01-13T08:53:53.205Z,4.94
2017-01-13T08:55:02.187Z,4.91
2017-01-13T08:56:11.182Z,4.89
2017-01-13T08:57:20.164Z,4.86
2017-01-13T08:58:29.156Z,4.89
2017-01-13T08:59:38.139Z,4.92
2017-01-13T09:00:47.122Z,4.94
2017-01-13T09:01:56.106Z,4.88
2017-01-13T09:03:05.092Z,4.91
2017-01-13T09:04:14.075Z,4.94
2017-01-13T09:05:24.762Z,4.89
2017-01-13T09:06:37.551Z,4.85
2017-01-13T09:07:50.160Z,4.84
2017-01-13T09:09:01.691Z,4.89
2017-01-13T09:10:11.782Z,4.88
2017-01-13T09:11:22.427Z,4.94
2017-01-13T09:12:33.586Z,4.91
2017-01-13T09:13:44.036Z,4.92
2017-01-13T09:14:54.166Z,4.96
2017-01-13T09:16:03.378Z,4.91
2017-01-13T09:17:12.603Z,5.04
2017-01-13T09:18:22.000Z,5
2017-01-13T09:19:31.765Z,5.02
2017-01-13T09:20:41.600Z,4.89
2017-01-13T09:21:51.794Z,4.88
2017-01-13T09:23:02.145Z,4.94
2017-01-13T09:24:11.561Z,4.94
2017-01-13T09:25:20.893Z,4.85
2017-01-13T09:26:31.033Z,4.99
2017-01-13T09:27:40.244Z,4.91
2017-01-13T09:28:52.304Z,4.88
2017-01-13T09:30:01.641Z,4.86
2017-01-13T09:31:10.684Z,4.88
2017-01-13T09:32:19.666Z,4.85
2017-01-13T09:33:29.242Z,4.89
2017-01-13T09:34:38.223Z,4.75
2017-01-13T09:35:47.444Z,4.78
2017-01-13T09:36:56.664Z,4.75
2017-01-13T09:38:06.822Z,4.66
2017-01-13T09:39:15.814Z,4.73
2017-01-13T09:40:24.797Z,4.77
2017-01-13T09:41:33.779Z,4.85
2017-01-13T09:42:42.769Z,4.88
2017-01-13T09:43:51.764Z,4.86
2017-01-13T09:45:00.753Z,4.85
2017-01-13T09:46:09.739Z,4.91
2017-01-13T09:47:18.727Z,4.84
2017-01-13T09:48:27.713Z,4.72
2017-01-13T09:49:36.696Z,4.77
2017-01-13T09:50:45.679Z,4.82
2017-01-13T09:51:54.661Z,4.88
2017-01-13T09:53:03.642Z,4.91
2017-01-13T09:54:12.627Z,4.92
2017-01-13T09:55:21.656Z,4.85
2017-01-13T09:56:30.641Z,4.8
2017-01-13T09:57:39.620Z,4.86
2017-01-13T09:58:48.604Z,4.77
2017-01-13T09:59:57.583Z,4.8
2017-01-13T10:01:06.568Z,4.85
2017-01-13T10:02:15.559Z,4.88
2017-01-13T10:03:24.544Z,4.75
2017-01-13T10:04:33.527Z,4.82
2017-01-13T10:05:42.521Z,4.88
2017-01-13T10:06:51.552Z,4.86
2017-01-13T10:08:00.994Z,4.82
2017-01-13T10:09:09.989Z,4.89
2017-01-13T10:10:19.007Z,4.89
2017-01-13T10:11:28.380Z,4.89
2017-01-13T10:12:37.788Z,4.92
2017-01-13T10:13:46.776Z,4.89
2017-01-13T10:14:55.794Z,4.92
2017-01-13T10:16:04.774Z,4.92
2017-01-13T10:17:13.759Z,4.89
2017-01-13T10:18:22.739Z,4.88
2017-01-13T10:19:31.863Z,4.92
2017-01-13T10:20:40.840Z,4.91
2017-01-13T10:21:49.823Z,4.89
2017-01-13T10:22:58.811Z,4.91
2017-01-13T10:24:07.792Z,4.92
2017-01-13T10:25:17.767Z,4.85
2017-01-13T10:26:28.216Z,4.8
2017-01-13T10:27:38.314Z,4.78
2017-01-13T10:28:47.638Z,4.75
2017-01-13T10:29:57.970Z,4.77
2017-01-13T10:31:08.154Z,4.77
2017-01-13T10:32:18.722Z,4.84
2017-01-13T10:33:29.068Z,4.84
2017-01-13T10:34:39.644Z,4.82
2017-01-13T10:35:50.359Z,4.8
2017-01-13T10:37:00.556Z,4.78
2017-01-13T10:38:11.234Z,4.78
2017-01-13T10:39:21.358Z,4.8
2017-01-13T10:40:31.921Z,4.75
2017-01-13T10:41:41.909Z,4.86
2017-01-13T10:42:51.057Z,4.88
2017-01-13T10:44:00.271Z,5.02
2017-01-13T10:45:09.738Z,4.94
2017-01-13T10:46:19.639Z,4.96
2017-01-13T10:47:30.087Z,4.94
2017-01-13T10:48:45.095Z,4.88
2017-01-13T10:49:57.630Z,4.92
2017-01-13T10:51:07.417Z,4.92
2017-01-13T10:52:17.450Z,5
2017-01-13T10:53:26.438Z,4.94
2017-01-13T10:54:35.483Z,4.94
2017-01-13T10:55:44.734Z,4.82
2017-01-13T10:56:53.719Z,4.82
2017-01-13T10:58:03.289Z,4.85
2017-01-13T10:59:12.984Z,4.82
2017-01-13T11:00:22.935Z,4.92
2017-01-13T11:01:32.098Z,4.88
2017-01-13T11:02:42.277Z,4.78
2017-01-13T11:03:51.334Z,4.73
2017-01-13T11:05:00.898Z,4.78
2017-01-13T11:06:10.907Z,4.78
2017-01-13T11:07:19.903Z,4.7
2017-01-13T11:08:29.967Z,4.75
2017-01-13T11:09:38.948Z,4.75
2017-01-13T11:10:48.691Z,4.67
2017-01-13T11:11:58.992Z,4.73
2017-01-13T11:13:08.037Z,4.77
2017-01-13T11:14:17.292Z,4.8
2017-01-13T11:15:26.274Z,4.8
2017-01-13T11:16:35.264Z,4.84
2017-01-13T11:17:44.249Z,4.77
2017-01-13T11:18:53.231Z,4.77
2017-01-13T11:20:02.213Z,4.66
2017-01-13T11:21:11.202Z,4.72
2017-01-13T11:22:20.191Z,4.66
2017-01-13T11:23:29.177Z,4.65
2017-01-13T11:24:38.450Z,4.6
2017-01-13T11:25:47.436Z,4.58
2017-01-13T11:26:56.424Z,4.58
2017-01-13T11:28:05.403Z,4.6
2017-01-13T11:29:14.394Z,4.48
2017-01-13T11:30:23.379Z,4.51
2017-01-13T11:31:32.362Z,4.44
2017-01-13T11:32:41.360Z,4.36
2017-01-13T11:33:50.353Z,4.32
2017-01-13T11:34:59.335Z,4.29
2017-01-13T11:36:08.315Z,4.33
2017-01-13T11:37:17.297Z,4.33
2017-01-13T11:38:26.279Z,4.32
2017-01-13T11:39:35.272Z,4.32
2017-01-13T11:40:44.255Z,4.34
2017-01-13T11:41:53.242Z,4.33
2017-01-13T11:43:02.237Z,4.3
2017-01-13T11:44:11.219Z,4.26
2017-01-13T11:45:20.201Z,4.16
2017-01-13T11:46:29.187Z,4.26
2017-01-13T11:47:38.170Z,4.29
2017-01-13T11:48:47.150Z,4.3
2017-01-13T11:49:56.132Z,4.29
2017-01-13T11:51:05.109Z,4.36
2017-01-13T11:52:14.088Z,4.3
2017-01-13T11:53:23.069Z,4.27
2017-01-13T11:54:32.052Z,4.26
2017-01-13T11:55:41.043Z,4.32
2017-01-13T11:56:50.028Z,4.3
2017-01-13T11:57:59.004Z,4.27
2017-01-13T11:59:07.989Z,4.23
2017-01-13T12:00:16.977Z,4.14
2017-01-13T12:01:25.969Z,4.22
2017-01-13T12:02:34.948Z,4.18
2017-01-13T12:03:43.932Z,4.23
2017-01-13T12:04:52.917Z,4.27
2017-01-13T12:06:01.939Z,4.18
2017-01-13T12:07:11.655Z,4.22
2017-01-13T12:08:20.658Z,4.2
2017-01-13T12:09:30.310Z,4.12
2017-01-13T12:10:39.933Z,4.14
2017-01-13T12:11:48.922Z,4.18
2017-01-13T12:12:57.905Z,4.14
2017-01-13T12:14:06.940Z,4.11
2017-01-13T12:15:15.928Z,4.04
2017-01-13T12:16:24.918Z,4.06
2017-01-13T12:17:33.946Z,4.15
2017-01-13T12:18:43.150Z,4.09
2017-01-13T12:19:52.139Z,4.14
2017-01-13T12:21:01.541Z,4.16
2017-01-13T12:22:10.523Z,4.2
2017-01-13T12:23:19.510Z,4.16
2017-01-13T12:24:28.509Z,4.24
2017-01-13T12:25:37.497Z,4.2
2017-01-13T12:26:46.505Z,4.29
2017-01-13T12:27:55.493Z,4.22
2017-01-13T12:29:04.473Z,4.26
2017-01-13T12:30:13.458Z,4.24
2017-01-13T12:31:22.442Z,4.18
2017-01-13T12:32:31.418Z,4.15
2017-01-13T12:33:40.436Z,4.2
2017-01-13T12:34:49.421Z,4.22
2017-01-13T12:35:58.431Z,4.2
2017-01-13T12:37:07.424Z,4.16
2017-01-13T12:38:16.516Z,4.54
2017-01-13T12:39:25.498Z,4.89
2017-01-13T12:40:34.487Z,4.78
2017-01-13T12:41:43.468Z,4.72
2017-01-13T12:42:52.447Z,4.58
2017-01-13T12:44:01.432Z,4.48
2017-01-13T12:45:10.416Z,4.47
2017-01-13T12:46:19.398Z,4.41
2017-01-13T12:47:28.381Z,4.32
2017-01-13T12:48:37.370Z,4.3
2017-01-13T12:49:46.356Z,4.29
2017-01-13T12:50:55.362Z,4.15
2017-01-13T12:52:04.355Z,4.24
2017-01-13T12:53:13.336Z,4.2
2017-01-13T12:54:22.328Z,4.14
2017-01-13T12:55:31.362Z,4.04
2017-01-13T12:56:40.351Z,3.94
2017-01-13T12:57:49.336Z,3.93
2017-01-13T12:58:58.354Z,3.86
2017-01-13T13:00:07.338Z,3.86
2017-01-13T13:01:16.587Z,3.75
2017-01-13T13:02:25.784Z,3.8
2017-01-13T13:03:34.794Z,3.72
2017-01-13T13:04:43.851Z,3.69
2017-01-13T13:05:52.912Z,3.66
2017-01-13T13:07:01.899Z,3.61
2017-01-13T13:08:14.272Z,3.54
2017-01-13T13:09:23.719Z,3.43
2017-01-13T13:10:32.952Z,3.36
2017-01-13T13:11:42.218Z,3.42
2017-01-13T13:12:51.212Z,3.29
2017-01-13T13:14:00.195Z,3.36
2017-01-13T13:15:09.176Z,3.43
2017-01-13T13:16:18.155Z,3.28
2017-01-13T13:17:27.137Z,3.31
2017-01-13T13:18:36.122Z,3.26
2017-01-13T13:19:45.114Z,3.28
2017-01-13T13:20:54.092Z,3.26
2017-01-13T13:22:03.085Z,3.39
2017-01-13T13:23:12.071Z,3.42
2017-01-13T13:24:21.051Z,3.39
2017-01-13T13:25:30.033Z,3.33
2017-01-13T13:26:39.015Z,3.42
2017-01-13T13:27:48.001Z,3.32
2017-01-13T13:28:56.985Z,3.39
2017-01-13T13:30:05.968Z,3.28
2017-01-13T13:31:14.954Z,3.33
2017-01-13T13:32:23.940Z,3.31
2017-01-13T13:33:32.943Z,3.36
2017-01-13T13:34:41.930Z,3.42
2017-01-13T13:35:50.907Z,3.42
2017-01-13T13:36:59.901Z,3.48
2017-01-13T13:38:08.885Z,3.45
2017-01-13T13:39:17.871Z,3.39
2017-01-13T13:40:26.851Z,3.4
2017-01-13T13:41:35.832Z,3.33
2017-01-13T13:42:44.815Z,3.43
2017-01-13T13:43:53.798Z,3.43
2017-01-13T13:45:02.786Z,3.35
2017-01-13T13:46:11.766Z,3.33
2017-01-13T13:47:20.750Z,3.24
2017-01-13T13:48:29.743Z,3.24
2017-01-13T13:49:38.724Z,3.36
2017-01-13T13:50:47.704Z,3.36
2017-01-13T13:51:56.685Z,3.42
2017-01-13T13:53:05.666Z,3.43
2017-01-13T13:54:14.655Z,3.48
2017-01-13T13:55:23.639Z,3.52
2017-01-13T13:56:32.623Z,3.45
2017-01-13T13:57:41.609Z,3.52
2017-01-13T13:58:50.591Z,3.61
2017-01-13T13:59:59.600Z,3.51
2017-01-13T14:01:08.584Z,3.6
2017-01-13T14:02:17.564Z,3.6
2017-01-13T14:03:26.545Z,3.61
2017-01-13T14:04:35.525Z,3.54
2017-01-13T14:05:44.502Z,3.62
2017-01-13T14:06:53.480Z,3.58
2017-01-13T14:08:02.465Z,3.6
2017-01-13T14:09:11.446Z,3.68
2017-01-13T14:10:20.473Z,3.68
2017-01-13T14:11:29.458Z,3.7
2017-01-13T14:12:38.435Z,3.61
2017-01-13T14:13:47.417Z,3.6
2017-01-13T14:14:56.394Z,3.6
2017-01-13T14:16:05.377Z,3.6
2017-01-13T14:17:14.355Z,3.6
2017-01-13T14:18:23.334Z,3.55
2017-01-13T14:19:32.314Z,3.61
2017-01-13T14:20:41.317Z,3.61
2017-01-13T14:21:50.310Z,3.57
2017-01-13T14:22:59.300Z,3.52
2017-01-13T14:24:10.158Z,3.61
2017-01-13T14:25:21.871Z,3.57
2017-01-13T14:26:32.671Z,3.58
2017-01-13T14:27:43.223Z,3.6
2017-01-13T14:28:53.567Z,3.55
2017-01-13T14:30:04.772Z,3.61
2017-01-13T14:31:16.174Z,3.58
2017-01-13T14:32:28.311Z,3.6
2017-01-13T14:33:40.009Z,3.65
2017-01-13T14:34:51.422Z,3.65
2017-01-13T14:36:01.863Z,3.65
2017-01-13T14:37:11.419Z,3.62
2017-01-13T14:38:21.828Z,3.68
2017-01-13T14:39:30.839Z,3.69
2017-01-13T14:40:40.523Z,3.68
2017-01-13T14:41:50.146Z,3.66
2017-01-13T14:42:59.839Z,3.66
2017-01-13T14:44:08.835Z,3.69
2017-01-13T14:45:17.822Z,3.7
2017-01-13T14:46:27.163Z,3.76
2017-01-13T14:47:36.284Z,3.76
2017-01-13T14:48:45.265Z,3.76
2017-01-13T14:49:54.246Z,3.69
2017-01-13T14:51:03.229Z,3.78
2017-01-13T14:52:12.219Z,3.87
2017-01-13T14:53:21.369Z,3.8
2017-01-13T14:54:30.356Z,3.8
2017-01-13T14:55:39.344Z,3.8
2017-01-13T14:56:48.328Z,3.87
2017-01-13T14:57:57.307Z,3.83
2017-01-13T14:59:06.288Z,3.76
2017-01-13T15:00:15.268Z,3.78
2017-01-13T15:01:24.252Z,3.84
2017-01-13T15:02:33.257Z,3.84
2017-01-13T15:03:42.249Z,3.86
2017-01-13T15:04:51.231Z,3.9
2017-01-13T15:06:00.244Z,3.9
2017-01-13T15:07:09.226Z,3.86
2017-01-13T15:08:18.213Z,3.88
2017-01-13T15:09:27.196Z,3.87
2017-01-13T15:10:36.183Z,3.83
2017-01-13T15:11:45.165Z,3.87
2017-01-13T15:12:54.154Z,3.91
2017-01-13T15:14:03.131Z,3.94
2017-01-13T15:15:12.121Z,3.94
2017-01-13T15:16:21.104Z,3.91
2017-01-13T15:17:30.112Z,3.91
2017-01-13T15:18:39.109Z,3.94
2017-01-13T15:19:48.097Z,3.93
2017-01-13T15:20:57.079Z,3.98
2017-01-13T15:22:06.093Z,3.93
2017-01-13T15:23:15.100Z,3.97
2017-01-13T15:24:24.151Z,3.94
2017-01-13T15:25:33.204Z,4.06
2017-01-13T15:26:42.355Z,3.91
2017-01-13T15:27:52.189Z,4.04
2017-01-13T15:29:01.185Z,3.97
2017-01-13T15:30:10.166Z,3.91
2017-01-13T15:31:19.145Z,3.93